Time;durP1;ratioP1;P1;durP2;ratioP2;P2;SDS_P1;SDS_P2;PMS_P1;PMS_P2;Temp;Humidity;BMP_temperature;BMP_pressure;BME280_temperature;BME280_humidity;BME280_pressure;Samples;Min_cycle;Max_cycle;Signal;HPM_P1;HPM_P2
2023/06/02 00:00:05;;;;;;;6.93;1.93;;;11.40;99.90;;;;;;5013640;28;20080;-66
2023/06/02 00:02:33;;;;;;;6.00;1.70;;;11.40;99.90;;;;;;5013178;28;20018;-65
2023/06/02 00:04:59;;;;;;;9.48;1.90;;;11.30;99.90;;;;;;5015986;28;20029;-80
2023/06/02 00:07:29;;;;;;;10.97;2.70;;;11.20;99.90;;;;;;5014067;28;20076;-66
2023/06/02 00:09:58;;;;;;;5.93;2.05;;;11.10;99.90;;;;;;5013267;28;20399;-64
2023/06/02 00:12:25;;;;;;;7.78;2.05;;;11.10;99.90;;;;;;5028276;28;20022;-83
2023/06/02 00:14:50;;;;;;;5.43;2.53;;;11.00;99.90;;;;;;5014903;28;20026;-66
2023/06/02 00:17:18;;;;;;;12.30;1.70;;;11.10;99.90;;;;;;5015453;28;20037;-64
2023/06/02 00:19:45;;;;;;;28.10;2.40;;;11.10;99.90;;;;;;5015042;28;20038;-66
2023/06/02 00:22:13;;;;;;;6.55;1.88;;;11.10;99.90;;;;;;5013434;28;20070;-65
2023/06/02 00:24:40;;;;;;;13.30;2.38;;;11.10;99.90;;;;;;5013790;28;20030;-66
2023/06/02 00:27:07;;;;;;;4.85;1.67;;;11.10;99.90;;;;;;5014926;28;20104;-65
2023/06/02 00:29:32;;;;;;;;;;;11.10;99.90;;;;;;5014444;28;20034;-67
2023/06/02 00:31:58;;;;;;;10.50;1.77;;;11.10;99.90;;;;;;5013891;28;19916;-65
2023/06/02 00:34:24;;;;;;;2.60;1.10;;;11.10;99.90;;;;;;5015557;28;20329;-66
2023/06/02 00:36:50;;;;;;;4.30;1.67;;;11.10;99.90;;;;;;5018218;28;20026;-65
2023/06/02 00:39:15;;;;;;;13.60;1.63;;;11.10;99.90;;;;;;5020817;28;20033;-65
2023/06/02 00:41:41;;;;;;;6.00;1.60;;;11.10;99.90;;;;;;5018112;28;20065;-65
2023/06/02 00:44:07;;;;;;;6.20;1.80;;;11.10;99.90;;;;;;5021071;28;20473;-66
2023/06/02 00:46:32;;;;;;;4.47;1.77;;;11.10;99.90;;;;;;5016589;28;20301;-79
2023/06/02 00:48:58;;;;;;;8.07;2.53;;;11.10;99.90;;;;;;5018495;28;20030;-65
2023/06/02 00:51:24;;;;;;;8.33;2.13;;;11.10;99.90;;;;;;5025276;28;20030;-65
2023/06/02 00:53:50;;;;;;;4.18;1.70;;;11.10;99.90;;;;;;5019702;28;20022;-65
2023/06/02 00:56:16;;;;;;;1.73;1.30;;;11.10;99.90;;;;;;5027237;28;20052;-75
2023/06/02 00:58:45;;;;;;;4.75;1.15;;;11.00;99.90;;;;;;5017547;28;20040;-65
2023/06/02 01:01:18;;;;;;;2.25;1.08;;;10.90;99.90;;;;;;5031539;28;20030;-65
2023/06/02 01:03:46;;;;;;;2.83;0.82;;;10.90;99.90;;;;;;5021719;28;20014;-65
2023/06/02 01:06:15;;;;;;;13.45;1.42;;;10.90;99.90;;;;;;5026226;28;20156;-66
2023/06/02 01:08:43;;;;;;;4.22;0.90;;;10.90;99.90;;;;;;5023066;28;20033;-64
2023/06/02 01:11:09;;;;;;;6.45;1.55;;;11.00;99.90;;;;;;5018480;28;20030;-79
2023/06/02 01:13:35;;;;;;;1.23;0.70;;;10.90;99.90;;;;;;5021911;28;20068;-66
2023/06/02 01:16:02;;;;;;;12.80;1.33;;;11.00;99.90;;;;;;5018241;28;20033;-65
2023/06/02 01:18:29;;;;;;;2.65;0.85;;;11.00;99.90;;;;;;5016312;28;20306;-65
2023/06/02 01:21:01;;;;;;;3.10;1.48;;;11.10;99.90;;;;;;5018137;28;20356;-65
2023/06/02 01:23:34;;;;;;;4.22;1.35;;;11.10;99.90;;;;;;5017231;28;20022;-65
2023/06/02 01:26:00;;;;;;;1.88;0.90;;;11.10;99.90;;;;;;5017385;28;20061;-66
2023/06/02 01:28:26;;;;;;;4.72;1.35;;;11.10;99.90;;;;;;5017033;28;20439;-66
2023/06/02 01:31:13;;;;;;;0.30;0.30;;;11.10;99.90;;;;;;5017854;28;20123;-66
2023/06/02 01:33:50;;;;;;;7.93;1.45;;;11.10;99.90;;;;;;5017409;28;20034;-79
2023/06/02 01:36:20;;;;;;;8.00;1.70;;;11.00;99.90;;;;;;5016396;28;20108;-66
2023/06/02 01:38:48;;;;;;;8.20;1.50;;;11.00;99.90;;;;;;5016520;28;20068;-64
2023/06/02 01:41:15;;;;;;;3.80;2.00;;;10.90;99.90;;;;;;5016208;28;20080;-66
2023/06/02 01:43:41;;;;;;;6.63;1.35;;;10.80;99.90;;;;;;5016309;28;20030;-65
2023/06/02 01:46:07;;;;;;;14.27;1.20;;;10.80;99.90;;;;;;5016209;28;20053;-65
2023/06/02 01:48:33;;;;;;;8.43;1.27;;;10.70;99.90;;;;;;5016225;28;20032;-66
2023/06/02 01:50:58;;;;;;;6.50;1.23;;;10.70;99.90;;;;;;5016275;28;20092;-65
2023/06/02 01:53:27;;;;;;;5.40;1.40;;;10.80;99.90;;;;;;5017011;28;20038;-67
2023/06/02 01:55:54;;;;;;;6.30;1.58;;;10.90;99.90;;;;;;5016415;28;20049;-65
2023/06/02 01:58:21;;;;;;;3.50;1.40;;;11.00;99.90;;;;;;5016507;28;20034;-65
2023/06/02 02:00:46;;;;;;;12.18;1.50;;;11.10;99.90;;;;;;5015991;28;20033;-66
2023/06/02 02:03:12;;;;;;;5.13;1.90;;;11.10;99.90;;;;;;5016928;28;20022;-65
2023/06/02 02:05:38;;;;;;;4.43;2.13;;;11.10;99.90;;;;;;5017343;28;20316;-84
2023/06/02 02:08:04;;;;;;;11.87;1.37;;;11.00;99.90;;;;;;5016425;28;20025;-66
2023/06/02 02:10:30;;;;;;;10.73;1.30;;;11.00;99.90;;;;;;5016264;28;20100;-65
2023/06/02 02:12:56;;;;;;;5.50;2.05;;;11.00;99.90;;;;;;5015633;28;20180;-65
2023/06/02 02:15:22;;;;;;;7.73;1.87;;;11.00;99.90;;;;;;5015804;28;20109;-66
2023/06/02 02:17:49;;;;;;;8.45;1.35;;;11.00;99.90;;;;;;5017940;28;20099;-65
2023/06/02 02:20:18;;;;;;;11.27;2.05;;;11.00;99.90;;;;;;5016696;28;20022;-66
2023/06/02 02:22:45;;;;;;;4.45;0.95;;;11.00;99.90;;;;;;5015719;28;20034;-65
2023/06/02 02:25:11;;;;;;;8.50;2.17;;;11.00;99.90;;;;;;5026662;28;20026;-64
2023/06/02 02:27:39;;;;;;;7.57;1.20;;;11.10;99.90;;;;;;5019673;28;20037;-66
2023/06/02 02:30:06;;;;;;;1.23;0.88;;;11.10;99.90;;;;;;5025422;28;20368;-65
2023/06/02 02:32:34;;;;;;;8.40;1.35;;;11.10;99.90;;;;;;5027194;28;20424;-65
2023/06/02 02:35:00;;;;;;;9.30;2.00;;;11.10;99.90;;;;;;5027651;28;20425;-66
2023/06/02 02:37:27;;;;;;;9.17;1.93;;;11.00;99.90;;;;;;5030135;28;20040;-65
2023/06/02 02:39:53;;;;;;;5.40;1.25;;;11.00;99.90;;;;;;5027698;28;20053;-65
2023/06/02 02:42:18;;;;;;;3.95;1.15;;;11.00;99.90;;;;;;5023936;28;20088;-65
2023/06/02 02:44:44;;;;;;;4.87;1.23;;;11.10;99.90;;;;;;5030156;28;21373;-64
2023/06/02 02:47:10;;;;;;;9.03;2.17;;;10.90;99.90;;;;;;5032343;28;20030;-64
2023/06/02 02:49:35;;;;;;;8.40;1.57;;;10.80;99.90;;;;;;5030828;28;20022;-65
2023/06/02 02:52:02;;;;;;;9.07;1.30;;;10.70;99.90;;;;;;5027830;28;20036;-66
2023/06/02 02:54:28;;;;;;;2.78;1.25;;;10.70;99.90;;;;;;5030064;28;20072;-79
2023/06/02 02:56:53;;;;;;;4.27;1.43;;;10.70;99.90;;;;;;5030137;28;20046;-65
2023/06/02 02:59:19;;;;;;;2.43;1.00;;;10.70;99.90;;;;;;5017086;28;20488;-84
2023/06/02 03:01:46;;;;;;;8.57;1.70;;;10.60;99.90;;;;;;5013238;28;20087;-66
2023/06/02 03:04:18;;;;;;;;;;;10.60;99.90;;;;;;5019012;28;20490;-64
2023/06/02 03:06:45;;;;;;;3.63;1.48;;;10.70;99.90;;;;;;5030529;28;19909;-65
2023/06/02 03:09:11;;;;;;;0.88;0.82;;;10.70;99.90;;;;;;5022959;28;20056;-66
2023/06/02 03:11:37;;;;;;;4.80;1.75;;;10.80;99.90;;;;;;5022426;28;20108;-66
2023/06/02 03:14:03;;;;;;;1.40;0.97;;;10.90;99.90;;;;;;5018072;28;20120;-65
2023/06/02 03:16:29;;;;;;;8.23;1.40;;;10.90;99.90;;;;;;5015611;28;20040;-66
2023/06/02 03:18:56;;;;;;;4.40;1.20;;;10.90;99.90;;;;;;5024573;28;20033;-79
2023/06/02 03:21:22;;;;;;;5.13;1.20;;;10.90;99.90;;;;;;5033631;28;20038;-65
2023/06/02 03:23:49;;;;;;;3.97;1.27;;;11.00;99.90;;;;;;5021159;28;20022;-64
2023/06/02 03:26:16;;;;;;;4.40;1.50;;;11.00;99.90;;;;;;5035329;28;20029;-65
2023/06/02 03:28:42;;;;;;;3.80;1.90;;;11.00;99.90;;;;;;5030743;28;20428;-65
2023/06/02 03:31:09;;;;;;;12.55;2.35;;;11.00;99.90;;;;;;5033517;28;20030;-64
2023/06/02 03:33:35;;;;;;;8.68;2.33;;;10.90;99.90;;;;;;5017456;28;20351;-64
2023/06/02 03:36:01;;;;;;;4.30;1.05;;;10.80;99.90;;;;;;5044532;28;20026;-80
2023/06/02 03:38:27;;;;;;;8.57;1.97;;;10.70;99.90;;;;;;5024724;28;20044;-65
2023/06/02 03:40:53;;;;;;;2.43;1.00;;;10.60;99.90;;;;;;5017298;28;20026;-65
2023/06/02 03:43:19;;;;;;;2.93;0.80;;;10.60;99.90;;;;;;5025179;28;20029;-65
2023/06/02 03:45:45;;;;;;;3.53;1.23;;;10.60;99.90;;;;;;5018468;28;20036;-64
2023/06/02 03:48:11;;;;;;;10.57;1.35;;;10.60;99.90;;;;;;5032953;28;20309;-65
2023/06/02 03:50:38;;;;;;;2.97;0.97;;;10.60;99.90;;;;;;5021316;28;20141;-66
2023/06/02 03:53:05;;;;;;;10.93;1.42;;;10.70;99.90;;;;;;5032090;28;20033;-64
2023/06/02 03:55:31;;;;;;;4.25;1.02;;;10.80;99.90;;;;;;5030573;28;20049;-65
2023/06/02 03:57:56;;;;;;;3.47;1.90;;;10.80;99.90;;;;;;5027116;28;20033;-66
2023/06/02 04:00:22;;;;;;;4.80;1.23;;;10.90;99.90;;;;;;5014121;28;20025;-66
2023/06/02 04:02:48;;;;;;;12.30;1.60;;;10.90;99.90;;;;;;5023738;28;20072;-85
2023/06/02 04:05:14;;;;;;;1.90;0.90;;;10.90;99.90;;;;;;5028376;28;20022;-65
2023/06/02 04:07:41;;;;;;;12.25;1.35;;;10.90;99.90;;;;;;5010029;28;20380;-66
2023/06/02 04:10:07;;;;;;;8.30;1.63;;;10.90;99.90;;;;;;5027038;28;20018;-66
2023/06/02 04:12:33;;;;;;;4.78;1.30;;;10.90;99.90;;;;;;5023817;28;20022;-64
2023/06/02 04:15:00;;;;;;;8.50;1.00;;;10.90;99.90;;;;;;5033972;28;20108;-65
2023/06/02 04:17:26;;;;;;;6.13;1.02;;;10.90;99.90;;;;;;5026999;28;20029;-66
2023/06/02 04:19:52;;;;;;;4.63;1.37;;;11.00;99.90;;;;;;5028336;28;20076;-73
2023/06/02 04:22:19;;;;;;;5.65;1.25;;;11.00;99.90;;;;;;5019940;28;20026;-66
2023/06/02 04:24:45;;;;;;;1.98;1.27;;;10.90;99.90;;;;;;5023250;28;20033;-65
2023/06/02 04:27:11;;;;;;;9.20;1.65;;;11.00;99.90;;;;;;5019104;28;20067;-66
2023/06/02 04:29:37;;;;;;;6.93;2.23;;;11.00;99.90;;;;;;5028345;28;20030;-66
2023/06/02 04:32:04;;;;;;;11.20;1.88;;;11.00;99.90;;;;;;5016792;28;20293;-65
2023/06/02 04:34:31;;;;;;;4.28;1.48;;;11.00;99.90;;;;;;5023791;28;20041;-66
2023/06/02 04:36:58;;;;;;;7.72;1.52;;;11.00;99.90;;;;;;5025537;28;20037;-78
2023/06/02 04:39:24;;;;;;;4.47;1.48;;;11.00;99.90;;;;;;5019298;28;20495;-65
2023/06/02 04:41:49;;;;;;;6.80;1.57;;;11.00;99.90;;;;;;5024798;28;20057;-65
2023/06/02 04:44:18;;;;;;;7.47;3.33;;;11.00;99.90;;;;;;5028037;28;20029;-65
2023/06/02 04:46:44;;;;;;;5.85;1.55;;;11.00;99.90;;;;;;5014663;28;20025;-66
2023/06/02 04:49:10;;;;;;;9.53;1.87;;;10.90;99.90;;;;;;5028120;28;20297;-65
2023/06/02 04:51:37;;;;;;;13.32;2.13;;;10.90;99.90;;;;;;5026691;28;20041;-66
2023/06/02 04:54:03;;;;;;;8.50;0.85;;;10.90;99.90;;;;;;5014387;28;20441;-66
2023/06/02 04:56:30;;;;;;;16.25;2.25;;;10.90;99.90;;;;;;5016407;28;20136;-66
2023/06/02 04:58:56;;;;;;;;;;;11.00;99.90;;;;;;5019719;28;20433;-65
2023/06/02 05:01:22;;;;;;;2.72;1.23;;;11.00;99.90;;;;;;5023920;28;19941;-65
2023/06/02 05:03:48;;;;;;;5.43;2.13;;;11.00;99.90;;;;;;5030711;28;20060;-66
2023/06/02 05:06:13;;;;;;;4.90;1.07;;;11.00;99.90;;;;;;5029120;28;20163;-65
2023/06/02 05:08:39;;;;;;;2.93;1.40;;;11.10;99.90;;;;;;5008459;28;20030;-66
2023/06/02 05:11:08;;;;;;;4.37;1.37;;;11.10;99.90;;;;;;5027915;28;20026;-77
2023/06/02 05:13:33;;;;;;;6.90;1.20;;;11.10;99.90;;;;;;5024590;28;20030;-65
2023/06/02 05:15:59;;;;;;;5.20;1.00;;;11.10;99.90;;;;;;5027652;28;20320;-66
2023/06/02 05:18:25;;;;;;;3.40;1.00;;;11.10;99.90;;;;;;5029263;28;20032;-65
2023/06/02 05:20:51;;;;;;;16.13;2.10;;;11.10;99.90;;;;;;5029432;28;20018;-65
2023/06/02 05:23:17;;;;;;;4.57;1.37;;;11.20;99.90;;;;;;5024578;28;20033;-65
2023/06/02 05:25:43;;;;;;;7.03;1.10;;;11.10;99.90;;;;;;5028818;28;20036;-66
2023/06/02 05:28:08;;;;;;;9.07;1.23;;;11.20;99.90;;;;;;5032848;28;20108;-78
2023/06/02 05:30:35;;;;;;;7.30;2.40;;;11.20;99.90;;;;;;5026939;28;20116;-66
2023/06/02 05:33:01;;;;;;;;;;;11.20;99.90;;;;;;5032938;28;20022;-65
2023/06/02 05:35:26;;;;;;;16.53;1.80;;;11.20;99.90;;;;;;5034325;28;19909;-65
2023/06/02 05:37:52;;;;;;;1.23;1.13;;;11.20;99.90;;;;;;5033594;28;20138;-67
2023/06/02 05:40:18;;;;;;;4.63;1.30;;;11.30;99.90;;;;;;5031478;28;20071;-66
2023/06/02 05:42:43;;;;;;;5.07;2.40;;;11.30;99.90;;;;;;5027420;28;20130;-64
2023/06/02 05:45:10;;;;;;;11.10;2.70;;;11.30;99.90;;;;;;5031304;28;20044;-66
2023/06/02 05:47:36;;;;;;;5.07;1.10;;;11.40;99.90;;;;;;5033146;28;20524;-66
2023/06/02 05:50:02;;;;;;;7.97;1.53;;;11.40;99.90;;;;;;5032074;28;20026;-73
2023/06/02 05:52:27;;;;;;;4.97;1.57;;;11.30;99.90;;;;;;5029261;28;20021;-66
2023/06/02 05:54:53;;;;;;;6.60;1.50;;;11.40;99.90;;;;;;5027679;28;20037;-83
2023/06/02 05:57:19;;;;;;;6.27;1.70;;;11.50;99.90;;;;;;5023710;28;20040;-66
2023/06/02 05:59:45;;;;;;;7.50;1.80;;;11.50;99.90;;;;;;5027440;28;20022;-66
2023/06/02 06:02:11;;;;;;;9.63;1.80;;;11.50;99.90;;;;;;5028423;28;20021;-66
2023/06/02 06:04:37;;;;;;;3.47;1.73;;;11.50;99.90;;;;;;5033267;28;20083;-65
2023/06/02 06:07:04;;;;;;;60.77;6.07;;;11.40;99.90;;;;;;5027468;28;20029;-66
2023/06/02 06:09:30;;;;;;;1.52;1.08;;;11.50;99.90;;;;;;5019456;28;20029;-67
2023/06/02 06:11:56;;;;;;;4.23;1.20;;;11.50;99.90;;;;;;5023366;28;20133;-79
2023/06/02 06:14:21;;;;;;;6.83;1.37;;;11.60;99.90;;;;;;5033680;28;20036;-65
2023/06/02 06:16:47;;;;;;;9.17;1.83;;;11.60;99.90;;;;;;5022072;28;20065;-67
2023/06/02 06:19:13;;;;;;;6.00;1.10;;;11.60;99.90;;;;;;5033563;28;20022;-66
2023/06/02 06:21:39;;;;;;;4.67;1.23;;;11.60;99.90;;;;;;5039839;28;20017;-65
2023/06/02 06:24:07;;;;;;;5.17;2.17;;;11.60;99.90;;;;;;5019198;28;20022;-66
2023/06/02 06:26:34;;;;;;;7.88;1.98;;;11.60;99.90;;;;;;5033970;28;20025;-66
2023/06/02 06:28:59;;;;;;;8.40;1.60;;;11.60;99.90;;;;;;5030665;28;20364;-77
2023/06/02 06:31:25;;;;;;;10.73;1.80;;;11.60;99.90;;;;;;5030133;28;20073;-65
2023/06/02 06:33:52;;;;;;;7.13;1.57;;;11.60;99.90;;;;;;5025103;28;20030;-66
2023/06/02 06:36:18;;;;;;;16.13;2.42;;;11.70;99.90;;;;;;5034752;28;20108;-65
2023/06/02 06:38:43;;;;;;;3.37;1.23;;;11.70;99.90;;;;;;5020013;28;20540;-66
2023/06/02 06:41:09;;;;;;;3.83;1.03;;;11.70;99.90;;;;;;5032845;28;20317;-66
2023/06/02 06:43:35;;;;;;;8.07;1.63;;;11.70;99.90;;;;;;5036126;28;20053;-66
2023/06/02 06:46:01;;;;;;;3.47;0.70;;;11.80;99.90;;;;;;5030031;28;20021;-66
2023/06/02 06:48:27;;;;;;;8.67;1.77;;;11.90;99.90;;;;;;5027801;28;20026;-66
2023/06/02 06:50:53;;;;;;;3.00;1.38;;;11.80;99.90;;;;;;5028927;28;20025;-66
2023/06/02 06:53:19;;;;;;;8.00;1.77;;;11.90;99.90;;;;;;5025713;28;20040;-67
2023/06/02 06:55:46;;;;;;;7.87;1.83;;;11.80;99.90;;;;;;5034259;28;20352;-78
2023/06/02 06:58:11;;;;;;;9.90;1.23;;;11.90;99.90;;;;;;5022458;28;20038;-66
2023/06/02 07:00:38;;;;;;;10.97;1.40;;;11.90;99.90;;;;;;5023237;28;20484;-66
2023/06/02 07:03:04;;;;;;;3.75;1.25;;;12.00;99.90;;;;;;5033473;28;20053;-65
2023/06/02 07:05:29;;;;;;;6.93;1.50;;;12.00;99.90;;;;;;5033935;28;20072;-66
2023/06/02 07:07:56;;;;;;;13.27;2.30;;;11.90;99.90;;;;;;5022911;28;20053;-65
2023/06/02 07:10:22;;;;;;;3.92;1.33;;;12.00;99.90;;;;;;5027338;28;20589;-65
2023/06/02 07:12:48;;;;;;;8.25;1.08;;;12.10;99.90;;;;;;5032173;28;20038;-80
2023/06/02 07:15:14;;;;;;;4.90;2.40;;;12.10;99.90;;;;;;5033344;28;20120;-66
2023/06/02 07:17:40;;;;;;;4.72;1.92;;;12.20;99.90;;;;;;5032581;28;20029;-66
2023/06/02 07:20:12;;;;;;;8.85;1.63;;;12.10;99.90;;;;;;5035057;28;20026;-66
2023/06/02 07:22:38;;;;;;;11.15;1.70;;;12.20;99.90;;;;;;5028602;28;20297;-66
2023/06/02 07:25:05;;;;;;;11.60;1.98;;;12.20;99.90;;;;;;5022673;28;20025;-65
2023/06/02 07:27:31;;;;;;;4.72;1.45;;;12.20;99.90;;;;;;5033513;28;20147;-65
2023/06/02 07:29:57;;;;;;;6.47;1.17;;;12.20;99.90;;;;;;5034101;28;20095;-65
2023/06/02 07:32:23;;;;;;;7.63;1.20;;;12.20;99.90;;;;;;5031982;28;20073;-66
2023/06/02 07:34:49;;;;;;;5.50;1.30;;;12.20;99.90;;;;;;5026418;28;20057;-66
2023/06/02 07:37:15;;;;;;;6.07;1.47;;;12.20;99.90;;;;;;5031355;28;20067;-66
2023/06/02 07:39:40;;;;;;;4.10;1.97;;;12.20;99.90;;;;;;5022835;28;20032;-80
2023/06/02 07:42:06;;;;;;;3.00;0.83;;;12.10;99.90;;;;;;5027394;28;20021;-66
2023/06/02 07:44:32;;;;;;;1.60;1.27;;;12.10;99.90;;;;;;5034490;28;20476;-65
2023/06/02 07:46:58;;;;;;;10.17;1.40;;;12.00;99.90;;;;;;5034815;28;20045;-78
2023/06/02 07:49:24;;;;;;;8.48;1.70;;;12.10;99.90;;;;;;5031113;28;20039;-66
2023/06/02 07:51:50;;;;;;;2.97;1.45;;;12.10;99.90;;;;;;5029635;28;20021;-66
2023/06/02 07:54:16;;;;;;;7.73;2.77;;;12.10;99.90;;;;;;5034595;28;20040;-66
2023/06/02 07:56:42;;;;;;;6.93;1.20;;;12.00;99.90;;;;;;5034265;28;20432;-66
2023/06/02 07:59:11;;;;;;;6.13;2.17;;;12.10;99.90;;;;;;5029174;28;20112;-66
2023/06/02 08:01:38;;;;;;;10.80;1.77;;;12.10;99.90;;;;;;5030792;28;20044;-66
2023/06/02 08:04:03;;;;;;;10.00;1.58;;;12.20;99.90;;;;;;5033002;28;20025;-65
2023/06/02 08:06:29;;;;;;;6.57;1.47;;;12.20;99.90;;;;;;5034560;28;20071;-66
2023/06/02 08:08:55;;;;;;;8.20;1.93;;;12.20;99.90;;;;;;5032293;28;20293;-64
2023/06/02 08:11:22;;;;;;;5.50;1.23;;;12.20;99.90;;;;;;5027907;28;20026;-65
2023/06/02 08:13:48;;;;;;;9.90;1.70;;;12.30;99.90;;;;;;5034500;28;20024;-68
2023/06/02 08:16:14;;;;;;;11.32;2.40;;;12.20;99.90;;;;;;5023018;28;20033;-65
2023/06/02 08:18:40;;;;;;;10.53;1.23;;;12.20;99.90;;;;;;5016076;28;20040;-66
2023/06/02 08:21:05;;;;;;;6.80;2.07;;;12.20;99.90;;;;;;5018905;28;20018;-77
2023/06/02 08:23:32;;;;;;;4.00;1.33;;;12.20;99.90;;;;;;5027408;28;20025;-66
2023/06/02 08:25:58;;;;;;;2.58;0.95;;;12.20;99.90;;;;;;5032626;28;20029;-67
2023/06/02 08:28:25;;;;;;;7.20;1.10;;;12.20;99.90;;;;;;5032181;28;20305;-66
2023/06/02 08:30:51;;;;;;;;;;;12.10;99.90;;;;;;5028362;28;20032;-65
2023/06/02 08:33:18;;;;;;;5.78;1.50;;;12.10;99.90;;;;;;5029109;28;19905;-66
2023/06/02 08:35:46;;;;;;;14.77;2.10;;;12.10;99.90;;;;;;5032391;28;20025;-66
2023/06/02 08:38:14;;;;;;;4.38;1.02;;;12.10;99.90;;;;;;5031709;28;20048;-79
2023/06/02 08:40:40;;;;;;;7.80;1.58;;;12.20;99.90;;;;;;5028150;28;20026;-66
2023/06/02 08:43:08;;;;;;;4.03;1.47;;;12.20;99.90;;;;;;5027499;28;20097;-66
2023/06/02 08:45:34;;;;;;;6.22;1.50;;;12.20;99.90;;;;;;5031722;28;20021;-66
2023/06/02 08:48:05;;;;;;;4.97;1.20;;;12.20;99.90;;;;;;5040580;28;20439;-66
2023/06/02 08:50:35;;;;;;;3.53;1.27;;;12.20;99.90;;;;;;5029257;28;20037;-66
2023/06/02 08:53:06;;;;;;;6.93;2.08;;;12.20;99.90;;;;;;5021431;28;20018;-67
2023/06/02 08:55:34;;;;;;;5.82;1.65;;;12.30;99.90;;;;;;5031132;28;20144;-66
2023/06/02 08:58:00;;;;;;;18.17;2.25;;;12.30;99.90;;;;;;5028884;28;20038;-65
2023/06/02 09:00:26;;;;;;;8.70;1.60;;;12.30;99.90;;;;;;5048574;28;20337;-67
2023/06/02 09:02:53;;;;;;;9.70;1.58;;;12.30;99.90;;;;;;5031827;28;20025;-66
2023/06/02 09:05:19;;;;;;;8.68;1.67;;;12.40;99.90;;;;;;5032237;28;20041;-66
2023/06/02 09:07:46;;;;;;;4.43;1.77;;;12.50;99.90;;;;;;5031161;28;20472;-67
2023/06/02 09:10:32;;;;;;;7.55;1.30;;;12.50;99.90;;;;;;5030391;28;20104;-85
2023/06/02 09:12:58;;;;;;;6.70;1.50;;;12.60;99.90;;;;;;5033295;28;20034;-65
2023/06/02 09:15:27;;;;;;;4.00;1.27;;;12.70;99.90;;;;;;5031603;28;20029;-65
2023/06/02 09:18:11;;;;;;;7.45;1.52;;;12.70;99.90;;;;;;5034479;28;20281;-65
2023/06/02 09:20:38;;;;;;;11.27;1.52;;;12.80;99.90;;;;;;5028175;28;20305;-65
2023/06/02 09:23:05;;;;;;;4.75;2.00;;;12.90;99.90;;;;;;5031846;28;20441;-67
2023/06/02 09:25:33;;;;;;;8.93;2.42;;;12.90;99.90;;;;;;5025239;28;20080;-65
2023/06/02 09:28:00;;;;;;;7.50;2.17;;;12.90;99.90;;;;;;5019857;28;20030;-66
2023/06/02 09:30:28;;;;;;;4.82;1.35;;;12.80;99.90;;;;;;5025189;28;20463;-68
2023/06/02 09:33:06;;;;;;;4.88;1.83;;;12.90;99.90;;;;;;5031829;28;20133;-65
2023/06/02 09:35:51;;;;;;;6.38;1.38;;;12.80;99.90;;;;;;5029457;28;20500;-66
2023/06/02 09:38:17;;;;;;;5.93;1.85;;;12.80;99.90;;;;;;5011185;28;20477;-67
2023/06/02 09:40:44;;;;;;;2.70;1.47;;;12.80;99.90;;;;;;5026163;28;20026;-66
2023/06/02 09:43:15;;;;;;;10.80;2.22;;;12.70;99.90;;;;;;5025004;28;20033;-66
2023/06/02 09:45:47;;;;;;;4.43;1.67;;;12.80;99.90;;;;;;5035967;28;20443;-67
2023/06/02 09:48:18;;;;;;;9.23;1.65;;;13.00;99.90;;;;;;5026445;28;20408;-66
2023/06/02 09:50:43;;;;;;;6.32;1.70;;;13.00;99.90;;;;;;5036220;28;20621;-67
2023/06/02 09:53:13;;;;;;;6.17;1.90;;;13.10;99.90;;;;;;5033863;28;20021;-66
2023/06/02 09:55:39;;;;;;;10.70;1.58;;;13.10;99.90;;;;;;5035766;28;20134;-66
2023/06/02 09:58:06;;;;;;;5.97;2.00;;;13.10;99.90;;;;;;5026782;28;20398;-66
2023/06/02 10:00:32;;;;;;;12.93;3.08;;;13.20;99.90;;;;;;5033383;28;20013;-66
2023/06/02 10:02:58;;;;;;;3.83;1.52;;;13.20;99.90;;;;;;5036926;28;20040;-65
2023/06/02 10:05:24;;;;;;;4.65;1.50;;;13.20;99.90;;;;;;5035863;28;20155;-66
2023/06/02 10:08:21;;;;;;;7.07;1.60;;;13.20;99.90;;;;;;5031216;28;20100;-82
2023/06/02 10:11:02;;;;;;;12.45;1.38;;;13.20;99.90;;;;;;5029742;28;20044;-66
2023/06/02 10:13:44;;;;;;;7.30;1.77;;;13.20;99.90;;;;;;5026973;28;20070;-67
2023/06/02 10:16:15;;;;;;;6.07;1.50;;;13.20;99.90;;;;;;5027830;28;20424;-66
2023/06/02 10:18:53;;;;;;;4.70;1.30;;;13.30;99.90;;;;;;5023130;28;20029;-66
2023/06/02 10:21:36;;;;;;;13.77;2.60;;;13.40;99.90;;;;;;5030332;28;20025;-67
2023/06/02 10:24:16;;;;;;;2.85;1.90;;;13.30;99.90;;;;;;5029795;28;20471;-67
2023/06/02 10:26:45;;;;;;;6.28;2.25;;;13.30;99.90;;;;;;5031470;28;20447;-66
2023/06/02 10:29:14;;;;;;;6.20;2.95;;;13.40;99.90;;;;;;5029088;28;20022;-78
2023/06/02 10:31:41;;;;;;;7.88;2.13;;;13.40;99.90;;;;;;5021472;28;20091;-66
2023/06/02 10:34:07;;;;;;;9.18;1.67;;;13.40;99.90;;;;;;5030043;28;20083;-66
2023/06/02 10:37:01;;;;;;;7.13;1.80;;;13.40;99.90;;;;;;5022423;28;20356;-72
2023/06/02 10:39:41;;;;;;;13.32;2.03;;;13.30;99.90;;;;;;5024592;28;20030;-66
2023/06/02 10:42:09;;;;;;;4.60;1.58;;;13.30;99.90;;;;;;5027868;28;20365;-66
2023/06/02 10:44:34;;;;;;;7.10;1.55;;;13.40;99.90;;;;;;5034340;28;20135;-66
2023/06/02 10:47:18;;;;;;;12.23;2.67;;;13.60;99.90;;;;;;5019666;28;20037;-66
2023/06/02 10:49:50;;;;;;;2.50;2.00;;;13.60;99.90;;;;;;5016559;28;20038;-67
2023/06/02 10:52:16;;;;;;;4.43;1.40;;;13.60;99.90;;;;;;5020986;28;20415;-66
2023/06/02 10:54:41;;;;;;;6.27;1.97;;;13.60;99.90;;;;;;5030721;28;20029;-66
2023/06/02 10:57:09;;;;;;;10.70;2.67;;;13.50;99.90;;;;;;5027657;28;20456;-67
2023/06/02 10:59:36;;;;;;;12.40;2.65;;;13.50;99.90;;;;;;5016178;28;20022;-67
2023/06/02 11:02:03;;;;;;;8.20;1.58;;;13.60;99.90;;;;;;5023790;28;20028;-65
2023/06/02 11:04:33;;;;;;;10.10;2.33;;;13.60;99.90;;;;;;5023774;28;20029;-81
2023/06/02 11:07:27;;;;;;;6.63;1.63;;;13.60;99.90;;;;;;5017388;28;20032;-67
2023/06/02 11:09:56;;;;;;;7.47;2.33;;;13.60;99.90;;;;;;5018415;28;20029;-67
2023/06/02 11:12:50;;;;;;;14.20;2.53;;;13.60;99.90;;;;;;5033855;28;20277;-66
2023/06/02 11:15:20;;;;;;;19.92;3.05;;;13.70;99.90;;;;;;5018252;28;20056;-80
2023/06/02 11:17:49;;;;;;;5.15;2.50;;;13.80;99.90;;;;;;5022130;28;20041;-66
2023/06/02 11:20:17;;;;;;;8.63;2.83;;;13.80;99.90;;;;;;5017227;28;20025;-67
2023/06/02 11:22:43;;;;;;;7.57;2.63;;;13.90;99.90;;;;;;5026829;28;20026;-70
2023/06/02 11:25:15;;;;;;;5.40;2.47;;;13.90;99.90;;;;;;5014877;28;20369;-67
2023/06/02 11:27:46;;;;;;;6.78;2.38;;;13.90;99.90;;;;;;5014293;28;20030;-67
2023/06/02 11:30:14;;;;;;;8.95;2.10;;;14.00;99.90;;;;;;5013419;28;20037;-80
2023/06/02 11:32:40;;;;;;;10.13;2.67;;;14.10;99.90;;;;;;5014853;28;20088;-65
2023/06/02 11:35:07;;;;;;;5.60;3.50;;;14.10;99.90;;;;;;5024766;28;20068;-82
2023/06/02 11:37:38;;;;;;;14.25;2.92;;;14.10;99.90;;;;;;5025182;28;20490;-67
2023/06/02 11:40:06;;;;;;;13.70;4.28;;;14.10;99.90;;;;;;5020310;28;20464;-67
2023/06/02 11:42:36;;;;;;;6.90;2.78;;;14.20;99.90;;;;;;5019743;28;20018;-67
2023/06/02 11:45:02;;;;;;;12.15;3.25;;;14.20;99.90;;;;;;5022162;28;20030;-70
2023/06/02 11:47:28;;;;;;;5.73;2.37;;;14.30;99.90;;;;;;5018529;28;20521;-67
2023/06/02 11:49:54;;;;;;;12.87;3.03;;;14.30;99.90;;;;;;5022462;28;20027;-67
2023/06/02 11:52:20;;;;;;;7.13;2.85;;;14.30;99.90;;;;;;5022348;28;20029;-68
2023/06/02 11:54:56;;;;;;;15.20;3.33;;;14.30;99.90;;;;;;5022564;28;20025;-68
2023/06/02 11:57:31;;;;;;;15.00;2.92;;;14.50;99.90;;;;;;5017905;28;20042;-66
2023/06/02 12:00:09;;;;;;;8.52;2.85;;;14.50;99.90;;;;;;5019774;28;20025;-77
2023/06/02 12:02:40;;;;;;;16.02;2.42;;;14.60;99.90;;;;;;5019196;28;20050;-67
2023/06/02 12:05:26;;;;;;;6.72;2.72;;;14.80;99.90;;;;;;5021850;28;20013;-67
2023/06/02 12:07:52;;;;;;;;;;;14.90;99.90;;;;;;5021094;28;20121;-68
2023/06/02 12:10:18;;;;;;;9.17;2.67;;;14.90;99.90;;;;;;5019247;28;19992;-67
2023/06/02 12:12:46;;;;;;;9.47;2.83;;;15.00;99.90;;;;;;5016236;28;21976;-66
2023/06/02 12:15:16;;;;;;;9.73;3.17;;;14.90;99.90;;;;;;5017064;28;20116;-67
2023/06/02 12:17:43;;;;;;;18.25;3.92;;;15.10;99.90;;;;;;5024564;28;20022;-65
2023/06/02 12:20:09;;;;;;;12.20;2.60;;;15.20;99.90;;;;;;5022722;28;20021;-67
2023/06/02 12:22:50;;;;;;;9.27;3.70;;;15.20;99.90;;;;;;5015045;28;20025;-67
2023/06/02 12:25:16;;;;;;;4.88;2.63;;;15.20;99.90;;;;;;5024563;28;20017;-67
2023/06/02 12:27:41;;;;;;;7.77;2.37;;;15.20;99.90;;;;;;5026972;28;20026;-74
2023/06/02 12:30:08;;;;;;;8.77;2.50;;;15.10;99.90;;;;;;5013848;28;20479;-65
2023/06/02 12:32:33;;;;;;;6.85;2.65;;;15.20;99.90;;;;;;5019280;28;21413;-68
2023/06/02 12:34:59;;;;;;;12.77;2.70;;;15.30;99.90;;;;;;5019941;28;20461;-66
2023/06/02 12:37:24;;;;;;;7.63;2.90;;;15.30;99.90;;;;;;5030932;28;20030;-68
2023/06/02 12:39:50;;;;;;;22.70;4.00;;;15.30;99.90;;;;;;5019174;28;20025;-66
2023/06/02 12:42:18;;;;;;;4.37;3.07;;;15.40;99.90;;;;;;5030296;28;20097;-67
2023/06/02 12:44:44;;;;;;;7.25;2.97;;;15.50;99.90;;;;;;5017470;28;20476;-67
2023/06/02 12:47:10;;;;;;;9.63;3.13;;;15.70;99.90;;;;;;5017010;28;20030;-67